Time;durP1;ratioP1;P1;durP2;ratioP2;P2;SDS_P1;SDS_P2;PMS_P1;PMS_P2;Temp;Humidity;BMP_temperature;BMP_pressure;BME280_temperature;BME280_humidity;BME280_pressure;Samples;Min_cycle;Max_cycle;Signal;HPM_P1;HPM_P2
2023/12/24 00:02:27;;;;;;;1.60;0.63;;;;;;;16.29;63.05;100547.84;10532272;28;20046;-49
2023/12/24 00:07:27;;;;;;;1.50;0.50;;;;;;;16.27;64.07;100545.44;10538509;28;20044;-45
2023/12/24 00:12:27;;;;;;;1.98;0.98;;;;;;;16.27;63.61;100550.81;10522477;28;20281;-49
2023/12/24 00:17:28;;;;;;;0.90;0.28;;;;;;;16.26;64.16;100543.84;10539931;28;20021;-49
2023/12/24 00:22:29;;;;;;;1.48;0.60;;;;;;;16.24;63.03;100513.94;10540128;28;20227;-46
2023/12/24 00:27:29;;;;;;;2.45;0.55;;;;;;;16.24;63.98;100494.41;10539414;28;20024;-46
2023/12/24 00:32:29;;;;;;;2.80;0.50;;;;;;;16.23;64.08;100482.09;10539765;28;20031;-47
2023/12/24 00:37:29;;;;;;;0.93;0.47;;;;;;;16.22;63.43;100469.78;10539176;28;20325;-50
2023/12/24 00:42:30;;;;;;;1.77;0.73;;;;;;;16.21;62.72;100452.16;10531305;28;20282;-49
2023/12/24 00:47:30;;;;;;;1.83;0.45;;;;;;;16.20;63.17;100459.38;10538866;28;20270;-46
2023/12/24 00:52:31;;;;;;;3.30;0.73;;;;;;;16.20;63.31;100456.69;10520751;28;20081;-45
2023/12/24 00:57:31;;;;;;;0.40;0.30;;;;;;;16.18;64.06;100444.69;10524493;28;20028;-48
2023/12/24 01:02:31;;;;;;;1.87;0.30;;;;;;;16.19;63.24;100451.63;10538699;28;20031;-46
2023/12/24 01:07:32;;;;;;;0.68;0.35;;;;;;;16.18;64.05;100424.09;10537736;28;20618;-46
2023/12/24 01:12:32;;;;;;;10.18;0.77;;;;;;;16.16;64.17;100441.53;10537941;28;20089;-49
2023/12/24 01:17:33;;;;;;;2.50;0.95;;;;;;;16.15;62.68;100432.69;10536160;28;20028;-46
2023/12/24 01:22:33;;;;;;;1.63;0.50;;;;;;;16.15;64.08;100432.69;10537930;28;20115;-48
2023/12/24 01:27:33;;;;;;;2.03;0.70;;;;;;;16.13;64.32;100426.06;10537182;28;20336;-46
2023/12/24 01:32:33;;;;;;;2.40;1.10;;;;;;;16.14;64.04;100436.47;10537108;28;20277;-49
2023/12/24 01:37:34;;;;;;;1.83;0.40;;;;;;;16.12;63.86;100416.44;10522935;28;20298;-47
2023/12/24 01:42:34;;;;;;;1.03;0.50;;;;;;;16.12;63.94;100424.47;10529665;28;20906;-51
2023/12/24 01:47:34;;;;;;;1.05;0.55;;;;;;;16.12;63.33;100422.59;10536270;28;20266;-47
2023/12/24 01:52:35;;;;;;;2.53;0.47;;;;;;;16.11;63.30;100410.28;10523052;28;20020;-46
2023/12/24 01:57:36;;;;;;;3.90;0.60;;;;;;;16.08;63.24;100400.94;10519327;28;20358;-48
2023/12/24 02:02:36;;;;;;;2.47;0.60;;;;;;;16.09;63.93;100404.41;10527601;28;20054;-46
2023/12/24 02:07:37;;;;;;;1.67;0.60;;;;;;;16.06;62.74;100397.75;10535855;28;20433;-46
2023/12/24 02:12:38;;;;;;;2.17;0.60;;;;;;;16.08;64.05;100395.59;10517084;28;20056;-50
2023/12/24 02:17:39;;;;;;;1.45;0.50;;;;;;;16.06;64.25;100394.28;10517271;28;20103;-48
2023/12/24 02:22:39;;;;;;;3.33;1.38;;;;;;;16.05;64.04;100380.13;10516986;28;20036;-47
2023/12/24 02:27:47;;;;;;;0.67;0.50;;;;;;;16.04;64.16;100377.75;10534684;28;20024;-45
2023/12/24 02:32:54;;;;;;;1.83;0.73;;;;;;;16.04;62.64;100367.03;10516334;28;20810;-47
2023/12/24 02:37:55;;;;;;;1.27;0.47;;;;;;;16.03;63.63;100352.88;10534795;28;20460;-46
2023/12/24 02:42:55;;;;;;;1.65;0.60;;;;;;;16.03;63.94;100346.72;10533988;28;20036;-46
2023/12/24 02:47:55;;;;;;;1.13;0.40;;;;;;;16.02;62.88;100342.47;10534486;28;20016;-50
2023/12/24 02:52:56;;;;;;;1.03;0.50;;;;;;;16.01;63.09;100330.19;10515991;28;20277;-49
2023/12/24 02:57:56;;;;;;;1.10;0.52;;;;;;;16.02;64.29;100335.25;10534234;28;20270;-48
2023/12/24 03:02:56;;;;;;;1.25;0.60;;;;;;;16.01;63.85;100335.53;10515344;28;20020;-49
2023/12/24 03:07:57;;;;;;;3.67;0.70;;;;;;;16.01;63.38;100335.53;10533515;28;20529;-46
2023/12/24 03:12:57;;;;;;;1.47;0.63;;;;;;;15.98;62.72;100344.94;10514752;28;20281;-46
2023/12/24 03:17:57;;;;;;;1.10;0.40;;;;;;;15.99;64.13;100332.34;10515430;28;20805;-46
2023/12/24 03:22:58;;;;;;;1.75;0.63;;;;;;;15.98;63.54;100290.63;10532908;28;20335;-49
2023/12/24 03:27:58;;;;;;;1.90;0.60;;;;;;;15.97;63.99;100313.09;10532740;28;20019;-51
2023/12/24 03:32:58;;;;;;;2.40;0.87;;;;;;;15.96;63.43;100296.25;10532819;28;20085;-47
2023/12/24 03:37:59;;;;;;;0.93;0.67;;;;;;;15.96;63.36;100277.53;10532537;28;20313;-47
2023/12/24 03:42:59;;;;;;;1.55;0.55;;;;;;;15.95;64.14;100281.31;10524148;28;20288;-45
2023/12/24 03:48:03;;;;;;;3.15;0.80;;;;;;;15.94;62.74;100278.94;10532720;28;20029;-46
2023/12/24 03:53:05;;;;;;;2.05;0.60;;;;;;;15.95;63.72;100275.97;10514236;28;20410;-50
2023/12/24 03:58:05;;;;;;;1.65;0.50;;;;;;;16.02;63.92;100267.59;10532826;28;20027;-47
2023/12/24 04:03:06;;;;;;;1.87;1.33;;;;;;;16.19;63.27;100269.75;10532093;28;20024;-46
2023/12/24 04:08:06;;;;;;;1.48;0.47;;;;;;;16.47;62.07;100266.13;10514242;28;20292;-46
2023/12/24 04:13:07;;;;;;;1.42;0.55;;;;;;;16.75;60.59;100276.94;10532123;28;20028;-46
2023/12/24 04:18:07;;;;;;;1.77;0.60;;;;;;;16.96;61.18;100262.13;10532421;28;20035;-46
2023/12/24 04:23:07;;;;;;;1.37;0.60;;;;;;;17.18;59.93;100259.56;10513809;28;20032;-47
2023/12/24 04:28:07;;;;;;;1.10;0.40;;;;;;;17.36;60.32;100249.84;10522648;28;20323;-47
2023/12/24 04:33:08;;;;;;;2.33;0.57;;;;;;;17.46;59.96;100249.63;10514373;28;20317;-47
2023/12/24 04:38:08;;;;;;;1.27;0.50;;;;;;;17.60;59.61;100254.97;10507199;28;20335;-47
2023/12/24 04:43:08;;;;;;;1.27;0.53;;;;;;;17.60;59.91;100246.13;10502036;28;20275;-47
2023/12/24 04:48:09;;;;;;;2.40;0.50;;;;;;;17.57;60.38;100241.38;10503628;28;20270;-45
2023/12/24 04:53:09;;;;;;;0.90;0.30;;;;;;;17.51;60.70;100240.69;10510103;28;20040;-48
2023/12/24 04:58:09;;;;;;;1.03;0.60;;;;;;;17.46;60.93;100230.06;10510999;28;20758;-49
2023/12/24 05:03:10;;;;;;;1.30;0.50;;;;;;;17.43;62.25;100226.13;10528728;28;20277;-47
2023/12/24 05:08:10;;;;;;;1.30;0.40;;;;;;;17.36;62.53;100216.88;10538266;28;20773;-45
2023/12/24 05:13:11;;;;;;;1.70;0.50;;;;;;;17.34;62.72;100214.50;10512461;28;20274;-47
2023/12/24 05:18:12;;;;;;;1.92;0.57;;;;;;;17.37;61.71;100213.91;10514203;28;20300;-46
2023/12/24 05:23:12;;;;;;;0.70;0.40;;;;;;;17.34;62.24;100205.66;10513804;28;20094;-48
2023/12/24 05:28:13;;;;;;;1.73;0.45;;;;;;;17.31;61.95;100215.09;10505996;28;20302;-46
2023/12/24 05:33:13;;;;;;;1.38;0.43;;;;;;;17.33;62.23;100207.56;10513689;28;20375;-46
2023/12/24 05:38:14;;;;;;;1.50;0.30;;;;;;;17.34;62.36;100198.44;10511148;28;20028;-49
2023/12/24 05:43:14;;;;;;;0.80;0.30;;;;;;;17.34;62.45;100197.63;10536518;28;20344;-46
2023/12/24 05:48:14;;;;;;;1.00;0.40;;;;;;;17.31;61.47;100201.72;10518786;28;20353;-46
2023/12/24 05:53:15;;;;;;;2.20;0.77;;;;;;;17.31;62.02;100200.91;10536293;28;20294;-47
2023/12/24 05:58:17;;;;;;;0.77;0.40;;;;;;;17.32;61.15;100208.66;10536606;28;20301;-47
2023/12/24 06:03:18;;;;;;;2.65;0.40;;;;;;;17.31;62.31;100188.31;10535260;28;20270;-46
2023/12/24 06:08:18;;;;;;;1.45;0.35;;;;;;;17.31;62.29;100199.03;10535853;28;20086;-46
2023/12/24 06:13:18;;;;;;;2.72;0.40;;;;;;;17.31;62.05;100192.88;10535343;28;20024;-46
2023/12/24 06:18:19;;;;;;;1.40;0.40;;;;;;;17.34;61.07;100181.56;10535635;28;20035;-47
2023/12/24 06:23:19;;;;;;;1.33;0.40;;;;;;;17.34;60.61;100173.50;10535289;28;20277;-48
2023/12/24 06:28:19;;;;;;;0.60;0.30;;;;;;;17.35;62.13;100183.13;10535427;28;20276;-50
2023/12/24 06:33:19;;;;;;;1.17;0.40;;;;;;;17.34;62.25;100190.38;10534614;28;20281;-45
2023/12/24 06:38:20;;;;;;;0.53;0.20;;;;;;;17.40;61.18;100185.69;10534840;28;20286;-47
2023/12/24 06:43:21;;;;;;;3.20;0.52;;;;;;;17.40;62.06;100188.38;10527372;28;20282;-44
2023/12/24 06:48:22;;;;;;;2.03;0.60;;;;;;;17.46;60.83;100181.84;10534434;28;20521;-47
2023/12/24 06:53:22;;;;;;;10.13;1.38;;;;;;;17.49;62.55;100175.88;10533918;28;20300;-47
2023/12/24 06:58:22;;;;;;;8.13;1.77;;;;;;;17.52;61.69;100181.44;10514543;28;20031;-47
2023/12/24 07:03:23;;;;;;;8.13;1.30;;;;;;;17.56;62.89;100183.50;10530206;28;20300;-49
2023/12/24 07:08:23;;;;;;;6.10;1.60;;;;;;;17.59;63.24;100181.00;10519785;28;20046;-47
2023/12/24 07:13:23;;;;;;;11.65;1.40;;;;;;;17.59;62.50;100174.84;10505399;28;20074;-47
2023/12/24 07:18:24;;;;;;;8.50;1.13;;;;;;;17.58;62.87;100176.75;10524442;28;20028;-48
2023/12/24 07:23:24;;;;;;;8.93;1.05;;;;;;;17.54;63.14;100186.50;10529979;28;20077;-46
2023/12/24 07:28:24;;;;;;;12.47;1.37;;;;;;;17.58;62.57;100167.91;10530658;28;20032;-50
2023/12/24 07:33:25;;;;;;;7.20;1.10;;;;;;;17.53;61.88;100168.81;10482397;28;20051;-46
2023/12/24 07:38:29;;;;;;;11.27;1.50;;;;;;;17.52;61.58;100175.25;10530356;28;20034;-48
2023/12/24 07:43:29;;;;;;;12.10;2.40;;;;;;;17.54;62.66;100170.41;10518411;28;20275;-47
2023/12/24 07:48:30;;;;;;;14.77;1.80;;;;;;;17.58;62.64;100171.38;10524213;28;20016;-46
2023/12/24 07:53:30;;;;;;;8.87;1.40;;;;;;;17.57;63.11;100163.66;10528220;28;20518;-46
2023/12/24 07:58:30;;;;;;;9.93;1.70;;;;;;;17.57;61.91;100163.66;10525615;28;20277;-47
2023/12/24 08:03:31;;;;;;;17.27;2.20;;;;;;;17.44;63.98;100167.94;10527375;28;20755;-48
2023/12/24 08:08:31;;;;;;;13.20;1.87;;;;;;;17.40;63.91;100170.41;10531344;28;20056;-47
2023/12/24 08:13:31;;;;;;;23.50;2.50;;;;;;;17.35;63.59;100175.09;10498777;28;20653;-48
2023/12/24 08:18:32;;;;;;;11.18;3.15;;;;;;;17.37;64.90;100175.59;10503716;28;20028;-47
2023/12/24 08:23:32;;;;;;;18.77;2.65;;;;;;;17.34;65.19;100157.44;10503618;28;20107;-44
2023/12/24 08:28:33;;;;;;;23.85;3.10;;;;;;;17.32;64.44;100152.38;10494527;28;20077;-48
2023/12/24 08:33:33;;;;;;;15.23;1.77;;;;;;;17.29;64.74;100166.38;10513205;28;20051;-49
2023/12/24 08:38:34;;;;;;;11.10;2.67;;;;;;;17.25;64.76;100165.38;10532649;28;20286;-48
2023/12/24 08:43:34;;;;;;;22.77;2.88;;;;;;;17.24;65.33;100164.59;10526329;28;20379;-50
2023/12/24 08:48:35;;;;;;;15.67;3.00;;;;;;;17.22;65.02;100164.09;10527872;28;20021;-45
2023/12/24 08:53:35;;;;;;;14.43;3.33;;;;;;;17.20;65.63;100165.50;10529587;28;20294;-49
2023/12/24 08:58:35;;;;;;;20.45;2.63;;;;;;;17.20;66.14;100165.50;10537959;28;20507;-47
2023/12/24 09:03:36;;;;;;;18.40;2.58;;;;;;;17.18;64.96;100165.00;10537188;28;20071;-46
2023/12/24 09:08:36;;;;;;;16.17;3.83;;;;;;;17.17;65.66;100161.53;10516252;28;20395;-46
2023/12/24 09:13:36;;;;;;;13.30;2.10;;;;;;;17.17;64.97;100150.03;10520140;28;20290;-46
2023/12/24 09:18:37;;;;;;;15.07;2.10;;;;;;;17.11;66.11;100149.31;10524066;28;20275;-47
2023/12/24 09:23:37;;;;;;;13.37;2.00;;;;;;;17.13;65.24;100170.44;10532652;28;20944;-48
2023/12/24 09:28:37;;;;;;;15.33;3.40;;;;;;;17.11;64.38;100167.28;10532519;28;20278;-49
2023/12/24 09:33:38;;;;;;;11.53;2.03;;;;;;;17.13;65.29;100144.44;10532915;28;20860;-48
2023/12/24 09:38:38;;;;;;;14.00;1.57;;;;;;;17.11;64.22;100133.25;10536287;28;20336;-46
2023/12/24 09:43:40;;;;;;;10.10;1.50;;;;;;;17.17;64.81;100129.38;10528672;28;20821;-45
2023/12/24 09:48:40;;;;;;;6.78;1.60;;;;;;;17.15;64.04;100130.75;10536761;28;20048;-48
2023/12/24 09:53:44;;;;;;;14.90;1.75;;;;;;;17.23;63.22;100127.38;10536765;28;20111;-46
2023/12/24 09:58:48;;;;;;;21.48;2.83;;;;;;;17.24;63.85;100123.59;10530934;28;20107;-50
2023/12/24 10:03:48;;;;;;;13.88;3.17;;;;;;;17.23;64.42;100122.81;10512086;28;20039;-47
2023/12/24 10:08:53;;;;;;;11.15;2.10;;;;;;;17.21;64.36;100140.28;10517599;28;20134;-47
2023/12/24 10:13:58;;;;;;;15.27;2.63;;;;;;;17.20;65.63;100144.06;10511583;28;20020;-46
2023/12/24 10:18:59;;;;;;;18.85;2.50;;;;;;;17.16;65.82;100159.13;10508709;28;20028;-46
2023/12/24 10:24:05;;;;;;;6.97;1.30;;;;;;;17.13;64.87;100173.13;10515656;28;20016;-50
2023/12/24 10:29:06;;;;;;;8.57;2.03;;;;;;;17.12;65.11;100150.13;10527065;28;20070;-47
2023/12/24 10:34:06;;;;;;;13.20;1.67;;;;;;;17.12;64.53;100153.59;10513245;28;20131;-46
2023/12/24 10:39:13;;;;;;;8.57;1.60;;;;;;;17.12;65.51;100136.72;10492801;28;20279;-48
2023/12/24 10:44:13;;;;;;;12.38;3.10;;;;;;;17.09;66.13;100143.47;10497672;28;20262;-48
2023/12/24 10:49:14;;;;;;;8.10;1.70;;;;;;;17.08;65.77;100130.38;10515039;28;20053;-47
2023/12/24 10:54:14;;;;;;;11.25;2.72;;;;;;;17.10;66.38;100115.59;10527844;28;20590;-46
2023/12/24 10:59:46;;;;;;;13.40;3.67;;;;;;;17.09;66.07;100114.00;10497167;28;20025;-46
2023/12/24 11:04:48;;;;;;;9.50;1.90;;;;;;;17.10;64.92;100109.44;10496341;28;20031;-48
2023/12/24 11:09:49;;;;;;;8.15;2.33;;;;;;;17.13;65.93;100116.88;10513868;28;20051;-47
2023/12/24 11:14:49;;;;;;;20.30;2.67;;;;;;;17.12;65.55;100116.09;10515011;28;20025;-46
2023/12/24 11:19:49;;;;;;;10.13;2.40;;;;;;;17.19;63.97;100100.41;10532156;28;20266;-48
2023/12/24 11:25:15;;;;;;;19.58;2.88;;;;;;;17.13;66.64;100082.84;10514274;28;20282;-45
2023/12/24 11:30:16;;;;;;;11.45;2.42;;;;;;;17.12;65.08;100081.25;10532320;28;20023;-45
2023/12/24 11:35:54;;;;;;;8.53;2.50;;;;;;;17.10;66.77;100058.56;10531965;28;20038;-47
2023/12/24 11:41:04;;;;;;;8.90;2.10;;;;;;;17.10;65.39;100066.59;10525484;28;20672;-51
2023/12/24 11:46:04;;;;;;;11.27;2.42;;;;;;;17.08;66.94;100066.91;10531536;28;20056;-45
2023/12/24 11:51:08;;;;;;;14.95;1.90;;;;;;;17.07;66.75;100068.00;10526542;28;20048;-46
2023/12/24 11:56:12;;;;;;;18.08;3.22;;;;;;;17.06;66.98;100068.28;10520243;28;20635;-48
2023/12/24 12:01:13;;;;;;;13.25;2.70;;;;;;;17.06;66.11;100071.75;10532302;28;20038;-48
2023/12/24 12:06:13;;;;;;;14.93;2.03;;;;;;;17.21;65.88;100046.53;10510838;28;20023;-46
2023/12/24 12:11:13;;;;;;;21.45;2.72;;;;;;;17.24;65.22;100033.31;10496434;28;20482;-46
2023/12/24 12:16:14;;;;;;;16.03;2.37;;;;;;;17.27;65.69;100036.47;10497562;28;20112;-46
2023/12/24 12:21:14;;;;;;;7.90;1.95;;;;;;;17.23;65.79;100047.00;10497635;28;20785;-47
2023/12/24 12:26:14;;;;;;;12.47;1.63;;;;;;;17.17;66.27;100037.50;10496659;28;20016;-49
2023/12/24 12:31:15;;;;;;;13.13;3.20;;;;;;;17.15;65.03;100012.88;10479306;28;20301;-46
2023/12/24 12:36:15;;;;;;;13.43;2.40;;;;;;;17.24;65.74;100008.41;10462962;28;20341;-47
2023/12/24 12:41:15;;;;;;;11.47;2.40;;;;;;;17.35;65.37;99996.34;10482726;28;20278;-47
2023/12/24 12:46:16;;;;;;;13.37;2.23;;;;;;;17.44;66.00;99993.75;10488904;28;20267;-49
2023/12/24 12:51:16;;;;;;;13.40;2.90;;;;;;;17.40;64.59;99984.72;10497390;28;20027;-48
2023/12/24 12:56:17;;;;;;;11.82;2.13;;;;;;;17.26;65.55;99987.44;10496533;28;20290;-48
2023/12/24 13:01:17;;;;;;;19.87;3.30;;;;;;;17.24;64.84;99979.72;10486877;28;20475;-48
2023/12/24 13:06:17;;;;;;;21.65;3.20;;;;;;;17.23;65.37;99972.00;10498677;28;20309;-48
2023/12/24 13:11:20;;;;;;;14.93;2.90;;;;;;;17.20;64.14;99980.66;10537764;28;20073;-47
2023/12/24 13:16:21;;;;;;;9.68;2.00;;;;;;;17.17;64.91;99970.53;10538283;28;20479;-47
2023/12/24 13:21:21;;;;;;;11.50;2.90;;;;;;;17.10;65.79;99970.16;10537947;28;20058;-48
2023/12/24 13:26:24;;;;;;;15.73;4.43;;;;;;;17.08;65.48;99965.09;10537978;28;20024;-47
2023/12/24 13:31:26;;;;;;;13.77;2.50;;;;;;;17.04;66.04;99982.88;10536338;28;20085;-47
2023/12/24 13:36:26;;;;;;;12.43;2.60;;;;;;;17.06;66.48;99963.84;10536734;28;20108;-48
2023/12/24 13:41:26;;;;;;;13.77;4.07;;;;;;;17.06;65.60;99961.16;10536062;28;20367;-47
2023/12/24 13:46:27;;;;;;;12.32;3.20;;;;;;;17.05;67.01;99951.50;10536251;28;20262;-48
2023/12/24 13:51:27;;;;;;;9.67;2.17;;;;;;;17.09;66.04;99955.19;10535989;28;20031;-48
2023/12/24 13:56:29;;;;;;;6.63;1.90;;;;;;;17.10;65.73;99946.06;10536616;28;20290;-47
2023/12/24 14:01:29;;;;;;;10.77;2.83;;;;;;;17.10;65.09;99946.06;10535951;28;20130;-49
2023/12/24 14:06:29;;;;;;;10.50;3.03;;;;;;;17.12;64.89;99922.44;10535376;28;20131;-49
2023/12/24 14:11:30;;;;;;;10.07;2.30;;;;;;;17.16;65.91;99918.81;10535477;28;20624;-51
2023/12/24 14:16:32;;;;;;;14.25;2.97;;;;;;;17.16;67.22;99918.81;10530456;28;20373;-50
2023/12/24 14:21:32;;;;;;;12.00;2.15;;;;;;;17.15;66.43;99906.53;10534408;28;20103;-51
2023/12/24 14:26:32;;;;;;;15.03;5.20;;;;;;;17.15;67.68;99908.41;10532290;28;20088;-48
2023/12/24 14:31:32;;;;;;;15.63;2.57;;;;;;;17.16;68.01;99924.19;10534125;28;20036;-48
2023/12/24 14:36:33;;;;;;;17.17;4.37;;;;;;;17.17;67.12;99912.41;10515060;28;20290;-49
2023/12/24 14:41:36;;;;;;;15.23;2.63;;;;;;;17.16;66.76;99901.97;10512610;28;20031;-47
2023/12/24 14:46:38;;;;;;;10.27;2.72;;;;;;;17.14;68.20;99886.19;10518133;28;20030;-49
2023/12/24 14:51:39;;;;;;;12.35;2.85;;;;;;;17.15;66.95;99887.00;10520526;28;20024;-49
2023/12/24 14:56:40;;;;;;;12.32;2.42;;;;;;;17.14;67.99;99917.56;10532936;28;20028;-50
2023/12/24 15:01:46;;;;;;;12.98;2.45;;;;;;;17.14;66.89;99901.47;10533320;28;20024;-50
2023/12/24 15:06:46;;;;;;;9.68;2.63;;;;;;;17.15;66.71;99895.03;10533553;28;20047;-48
2023/12/24 15:11:47;;;;;;;6.67;2.60;;;;;;;17.12;66.76;99906.34;10487494;28;20563;-52
2023/12/24 15:16:47;;;;;;;15.13;3.63;;;;;;;17.20;66.31;99906.41;10502342;28;20290;-49
2023/12/24 15:21:48;;;;;;;14.90;2.92;;;;;;;17.13;67.47;99919.44;10506481;28;20794;-49
2023/12/24 15:26:48;;;;;;;11.33;3.33;;;;;;;17.13;67.84;99926.69;10509394;28;20522;-50
2023/12/24 15:31:49;;;;;;;8.97;2.23;;;;;;;17.11;68.58;99912.81;10513993;28;20288;-47
2023/12/24 15:36:49;;;;;;;9.63;2.67;;;;;;;17.10;67.75;99920.06;10527173;28;20933;-51
2023/12/24 15:41:49;;;;;;;9.97;2.27;;;;;;;17.09;68.38;99917.69;10502932;28;20100;-47
2023/12/24 15:46:50;;;;;;;8.10;1.97;;;;;;;17.06;67.69;99911.06;10479439;28;20282;-49
2023/12/24 15:51:50;;;;;;;9.90;2.00;;;;;;;17.05;67.58;99906.81;10493614;28;20270;-53
2023/12/24 15:56:52;;;;;;;12.88;3.45;;;;;;;17.11;66.38;99915.50;10483442;28;20389;-48
2023/12/24 16:01:52;;;;;;;9.60;3.92;;;;;;;17.18;65.55;99916.66;10519031;28;20016;-45
2023/12/24 16:06:52;;;;;;;7.83;3.40;;;;;;;17.23;65.46;99931.81;10506077;28;20025;-46
2023/12/24 16:11:53;;;;;;;11.18;3.83;;;;;;;17.36;64.95;99947.03;10492107;28;20327;-47
2023/12/24 16:16:54;;;;;;;7.55;3.55;;;;;;;17.43;65.25;99930.53;10492509;28;20021;-48
2023/12/24 16:21:55;;;;;;;11.60;4.27;;;;;;;17.59;66.33;99938.97;10507594;28;20240;-46
2023/12/24 16:26:56;;;;;;;12.55;4.78;;;;;;;17.67;65.45;99960.47;10504111;28;20770;-48
2023/12/24 16:31:56;;;;;;;14.38;4.85;;;;;;;17.85;66.47;99955.19;10509706;28;20111;-48
2023/12/24 16:37:00;;;;;;;16.63;4.80;;;;;;;17.94;65.58;99961.41;10517657;28;20376;-50
2023/12/24 16:42:01;;;;;;;15.50;5.18;;;;;;;18.11;65.82;99986.41;10513684;28;20274;-46
2023/12/24 16:47:02;;;;;;;15.47;5.67;;;;;;;18.17;66.78;99972.84;10517512;28;20016;-47
2023/12/24 16:52:03;;;;;;;13.45;5.55;;;;;;;18.29;68.24;99999.88;10518238;28;20700;-45
2023/12/24 16:57:03;;;;;;;15.43;6.50;;;;;;;18.45;68.00;100011.78;10528025;28;20052;-51
2023/12/24 17:02:04;;;;;;;15.77;10.20;;;;;;;18.62;69.27;100011.03;10512579;28;20056;-47
2023/12/24 17:07:04;;;;;;;21.20;8.80;;;;;;;18.66;68.24;100002.06;10510101;28;20059;-47
2023/12/24 17:12:05;;;;;;;13.30;7.35;;;;;;;18.55;68.11;100018.75;10521271;28;20032;-49
2023/12/24 17:17:06;;;;;;;19.60;8.05;;;;;;;18.75;69.00;100047.75;10538633;28;20038;-48
2023/12/24 17:22:06;;;;;;;14.73;10.00;;;;;;;18.76;68.44;100045.84;10537929;28;20114;-48
2023/12/24 17:27:06;;;;;;;17.23;10.03;;;;;;;18.80;68.46;100028.00;10538110;28;20016;-47
2023/12/24 17:32:07;;;;;;;15.67;12.70;;;;;;;18.90;67.22;100030.38;10526004;28;20282;-46
2023/12/24 17:37:08;;;;;;;16.63;12.93;;;;;;;18.91;66.72;100038.13;10538119;28;20296;-47
2023/12/24 17:42:09;;;;;;;20.02;13.27;;;;;;;18.66;67.89;100015.50;10536929;28;20120;-47
2023/12/24 17:47:09;;;;;;;21.73;12.50;;;;;;;18.54;67.92;100028.69;10515776;28;20447;-46
2023/12/24 17:52:11;;;;;;;15.57;12.77;;;;;;;18.49;67.52;100038.81;10497026;28;20270;-49
2023/12/24 17:57:11;;;;;;;18.52;12.70;;;;;;;18.40;68.88;100062.91;10523380;28;20274;-50
2023/12/24 18:02:12;;;;;;;13.98;12.57;;;;;;;18.34;67.76;100072.19;10523882;28;20028;-46
2023/12/24 18:07:12;;;;;;;21.77;13.70;;;;;;;18.42;68.04;100076.81;10536248;28;20584;-46
2023/12/24 18:12:15;;;;;;;19.40;12.33;;;;;;;18.38;67.70;100084.72;10508147;28;20274;-47
2023/12/24 18:17:15;;;;;;;17.77;12.82;;;;;;;18.35;67.78;100108.66;10506781;28;20288;-48
2023/12/24 18:22:15;;;;;;;26.73;23.67;;;;;;;18.28;68.05;100111.03;10518619;28;20562;-46
2023/12/24 18:27:16;;;;;;;23.27;15.57;;;;;;;18.21;67.77;100111.44;10535542;28;20024;-47
2023/12/24 18:32:17;;;;;;;17.00;14.05;;;;;;;18.18;67.34;100100.53;10535015;28;20270;-50
2023/12/24 18:37:17;;;;;;;14.60;12.80;;;;;;;18.19;66.88;100091.38;10534975;28;20028;-48
2023/12/24 18:42:17;;;;;;;17.45;11.02;;;;;;;18.56;65.30;100082.88;10526261;28;20283;-46
2023/12/24 18:47:18;;;;;;;19.43;14.20;;;;;;;18.28;66.89;100117.19;10534901;28;20020;-48
2023/12/24 18:52:18;;;;;;;14.17;12.50;;;;;;;18.14;67.89;100137.94;10516292;28;20036;-50
2023/12/24 18:57:18;;;;;;;18.10;13.03;;;;;;;18.08;66.55;100145.31;10534404;28;20286;-50
2023/12/24 19:02:19;;;;;;;16.07;11.77;;;;;;;18.08;66.80;100147.19;10533324;28;20020;-46
2023/12/24 19:07:19;;;;;;;23.13;14.07;;;;;;;18.05;67.19;100142.44;10533757;28;20294;-47
2023/12/24 19:12:19;;;;;;;17.80;12.48;;;;;;;18.04;67.38;100159.63;10529216;28;20809;-47
2023/12/24 19:17:20;;;;;;;20.65;11.90;;;;;;;18.01;68.25;100150.31;10506566;28;20039;-51
2023/12/24 19:22:20;;;;;;;18.40;11.90;;;;;;;17.99;67.98;100135.59;10529966;28;20107;-50
2023/12/24 19:27:20;;;;;;;16.00;11.07;;;;;;;17.97;68.70;100153.91;10533536;28;20301;-49
2023/12/24 19:32:21;;;;;;;16.73;12.23;;;;;;;17.94;67.37;100160.66;10532914;28;20050;-47
2023/12/24 19:37:22;;;;;;;18.58;10.88;;;;;;;17.94;68.21;100167.94;10533203;28;20377;-46
2023/12/24 19:42:24;;;;;;;13.35;10.50;;;;;;;17.90;68.18;100161.59;10524520;28;20055;-48
2023/12/24 19:47:24;;;;;;;12.18;9.90;;;;;;;17.90;68.34;100173.13;10532976;28;20020;-48
2023/12/24 19:52:25;;;;;;;17.43;10.23;;;;;;;17.86;68.70;100160.59;10514240;28;20123;-51
2023/12/24 19:57:25;;;;;;;13.27;8.93;;;;;;;17.83;68.89;100159.31;10532676;28;20297;-50
2023/12/24 20:02:26;;;;;;;17.17;9.25;;;;;;;17.83;69.11;100159.31;10531613;28;20794;-47
2023/12/24 20:07:27;;;;;;;9.98;8.15;;;;;;;17.82;68.03;100155.06;10532307;28;20118;-47
2023/12/24 20:12:27;;;;;;;11.75;8.20;;;;;;;17.80;68.02;100159.94;10514042;28;20104;-48
2023/12/24 20:17:27;;;;;;;15.03;8.60;;;;;;;17.77;67.99;100161.34;10532414;28;20051;-47
2023/12/24 20:22:28;;;;;;;10.60;7.90;;;;;;;17.74;68.82;100156.56;10535712;28;20289;-46
2023/12/24 20:27:28;;;;;;;12.07;8.63;;;;;;;17.69;69.11;100167.41;10540335;28;20301;-47
2023/12/24 20:32:28;;;;;;;12.80;8.57;;;;;;;17.71;69.15;100167.09;10538437;28;20026;-46
2023/12/24 20:37:29;;;;;;;12.67;7.73;;;;;;;17.70;69.87;100173.56;10539238;28;20046;-47
2023/12/24 20:42:29;;;;;;;16.50;9.00;;;;;;;17.69;69.10;100180.81;10531846;28;20311;-48
2023/12/24 20:47:29;;;;;;;12.37;8.57;;;;;;;17.57;67.56;100167.13;10539694;28;20016;-49
2023/12/24 20:52:30;;;;;;;28.97;16.73;;;;;;;17.50;69.16;100175.56;10532864;28;20433;-49
2023/12/24 20:57:30;;;;;;;48.33;27.20;;;;;;;17.48;69.17;100190.34;10523413;28;20369;-49
2023/12/24 21:02:33;;;;;;;44.07;24.87;;;;;;;17.42;68.60;100205.78;10511341;28;20362;-48
2023/12/24 21:07:34;;;;;;;44.72;23.20;;;;;;;17.40;68.29;100197.22;10511006;28;20290;-49
2023/12/24 21:12:35;;;;;;;42.07;24.80;;;;;;;17.36;68.47;100187.41;10511660;28;20411;-49
2023/12/24 21:17:41;;;;;;;56.38;29.20;;;;;;;17.36;67.95;100193.56;10510814;28;20294;-50
2023/12/24 21:22:41;;;;;;;45.70;26.73;;;;;;;17.31;68.02;100198.25;10498143;28;20051;-49
2023/12/24 21:27:41;;;;;;;39.33;25.77;;;;;;;17.30;68.26;100192.09;10537806;28;20028;-53
2023/12/24 21:32:42;;;;;;;42.28;27.23;;;;;;;17.25;68.61;100198.31;10536667;28;20319;-47
2023/12/24 21:37:42;;;;;;;48.67;28.70;;;;;;;17.27;68.11;100200.69;10495573;28;20036;-52
2023/12/24 21:42:42;;;;;;;42.50;24.63;;;;;;;17.28;67.70;100180.84;10536904;28;20266;-51
2023/12/24 21:47:43;;;;;;;44.93;25.77;;;;;;;17.28;67.28;100188.09;10523340;28;20327;-49
2023/12/24 21:52:43;;;;;;;41.83;26.33;;;;;;;17.30;67.62;100183.25;10518888;28;20265;-48
2023/12/24 21:57:43;;;;;;;48.43;28.43;;;;;;;17.30;68.29;100199.34;10536149;28;20290;-51
2023/12/24 22:02:44;;;;;;;54.33;29.40;;;;;;;17.32;67.77;100200.63;10518138;28;20281;-48
2023/12/24 22:07:44;;;;;;;40.17;25.03;;;;;;;17.36;67.37;100192.75;10535829;28;20297;-49
2023/12/24 22:12:44;;;;;;;35.30;23.87;;;;;;;17.36;67.48;100177.47;10517761;28;20691;-48
2023/12/24 22:17:46;;;;;;;37.47;23.73;;;;;;;17.38;66.74;100185.22;10535662;28;20293;-49
2023/12/24 22:22:46;;;;;;;47.90;24.08;;;;;;;17.40;68.10;100197.22;10535266;28;20289;-51
2023/12/24 22:27:47;;;;;;;38.57;23.10;;;;;;;17.44;67.17;100218.88;10534332;28;20017;-50
2023/12/24 22:32:47;;;;;;;38.42;22.95;;;;;;;17.44;67.43;100213.50;10534948;28;20278;-52
2023/12/24 22:37:47;;;;;;;37.40;21.20;;;;;;;17.46;67.40;100214.78;10534659;28;20616;-51
2023/12/24 22:42:48;;;;;;;33.30;21.60;;;;;;;17.43;66.97;100215.41;10526404;28;20278;-50
2023/12/24 22:47:48;;;;;;;31.00;20.30;;;;;;;17.45;68.02;100210.53;10533924;28;20506;-50
2023/12/24 22:52:48;;;;;;;36.53;20.35;;;;;;;17.49;67.19;100205.34;10534635;28;20035;-52